Maniwaki, Canada
Current Conditions -  °F | °C
As of 11:00 AM on Tuesday 21 Oct 2014 (Local Time) from CYND Reporting Station
Light Rain Light Rain  
Wind Chill: 37°   Ceiling: 2000
Heat Index: 43°   Visibility: 5mi
Dew Point: 39°   Wind: 12mph
Humidity: 87%   Direction: 50°NE
Pressure: 30.02"   Gusts: NA
Location:  46.37°N, 75.98°W
Report Text: CYND 211500Z 05010KT 5SM -RA BR FEW009 OVC020 06/04 A3002 RMK SF2SC6 SLP167
Loading
Personal Weather Stations






























Interactive Weather Map
Tropical Storm Tracking
New forecast layout! Learn more

10-Day Weather Forecast

Advertisements
Track Severe Weather on mobile